createdAt,value
2018-06-29T00:01:49.769Z,91192.13
2018-06-29T00:04:24.217Z,91196.05
2018-06-29T00:06:58.236Z,91203.13
2018-06-29T00:09:32.480Z,91201.47
2018-06-29T00:12:06.479Z,91189.28
2018-06-29T00:14:40.486Z,91195.91
2018-06-29T00:17:14.541Z,91193.64
2018-06-29T00:19:48.926Z,91191.42
2018-06-29T00:22:23.067Z,91194.38
2018-06-29T00:24:57.281Z,91186.74
2018-06-29T00:27:32.069Z,91184.66
2018-06-29T00:30:06.357Z,91187.30
2018-06-29T00:32:40.541Z,91185.30
2018-06-29T00:35:14.670Z,91181.94
2018-06-29T00:37:48.711Z,91182.77
2018-06-29T00:40:23.460Z,91178.48
2018-06-29T00:42:57.658Z,91177.14
2018-06-29T00:45:31.743Z,91177.92
2018-06-29T00:48:05.858Z,91177.36
2018-06-29T00:50:40.214Z,91172.55
2018-06-29T00:53:14.386Z,91174.05
2018-06-29T00:55:50.540Z,91168.02
2018-06-29T00:58:24.650Z,91166.70
2018-06-29T01:00:58.784Z,91163.65
2018-06-29T01:03:34.279Z,91162.16
2018-06-29T01:06:08.269Z,91157.11
2018-06-29T01:08:42.453Z,91154.45
2018-06-29T01:11:17.004Z,91155.45
2018-06-29T01:13:51.578Z,91150.64
2018-06-29T01:16:25.809Z,91145.95
2018-06-29T01:18:59.845Z,91142.27
2018-06-29T01:21:33.947Z,91146.89
2018-06-29T01:24:08.196Z,91151.52
2018-06-29T01:26:43.049Z,91142.70
2018-06-29T01:29:17.138Z,91135.33
2018-06-29T01:31:51.976Z,91137.11
2018-06-29T01:34:26.092Z,91133.97
2018-06-29T01:37:00.121Z,91131.44
2018-06-29T01:39:34.279Z,91129.73
2018-06-29T01:42:08.947Z,91131.88
2018-06-29T01:44:42.853Z,91125.20
2018-06-29T01:47:18.433Z,91119.96
2018-06-29T01:49:53.443Z,91119.91
2018-06-29T01:52:27.563Z,91118.08
2018-06-29T01:55:01.798Z,91116.98
2018-06-29T01:57:35.846Z,91121.87
2018-06-29T02:00:10.971Z,91118.52
2018-06-29T02:02:44.913Z,91120.00
2018-06-29T02:05:19.594Z,91127.16
2018-06-29T02:07:53.624Z,91125.72
2018-06-29T02:10:27.742Z,91132.22
2018-06-29T02:13:02.482Z,91132.17
2018-06-29T02:15:36.935Z,91123.84
2018-06-29T02:18:11.190Z,91127.64
2018-06-29T02:20:45.488Z,91127.98
2018-06-29T02:23:19.827Z,91118.38
2018-06-29T02:25:53.953Z,91119.00
2018-06-29T02:28:28.191Z,91109.08
2018-06-29T02:31:02.599Z,91112.38
2018-06-29T02:33:36.861Z,91112.63
2018-06-29T02:36:10.950Z,91115.42
2018-06-29T02:38:45.004Z,91120.88
2018-06-29T02:41:19.177Z,91121.01
2018-06-29T02:43:53.637Z,91117.11
2018-06-29T02:46:27.777Z,91116.00
2018-06-29T02:49:02.387Z,91122.07
2018-06-29T02:51:37.065Z,91115.87
2018-06-29T02:54:11.280Z,91121.12
2018-06-29T02:56:45.304Z,91118.85
2018-06-29T02:59:19.760Z,91123.38
2018-06-29T03:01:53.972Z,91123.66
2018-06-29T03:04:28.186Z,91128.63
2018-06-29T03:07:02.059Z,91132.52
2018-06-29T03:09:36.267Z,91127.19
2018-06-29T03:12:10.162Z,91133.91
2018-06-29T03:14:45.363Z,91142.34
2018-06-29T03:17:20.349Z,91140.73
2018-06-29T03:19:54.901Z,91144.88
2018-06-29T03:22:28.936Z,91145.67
2018-06-29T03:25:04.080Z,91143.30
2018-06-29T03:27:39.454Z,91137.98
2018-06-29T03:30:13.670Z,91141.34
2018-06-29T03:32:48.016Z,91135.02
2018-06-29T03:35:23.036Z,91134.25
2018-06-29T03:37:57.628Z,91132.75
2018-06-29T03:40:32.073Z,91124.55
2018-06-29T03:43:06.208Z,91129.98
2018-06-29T03:45:40.306Z,91119.38
2018-06-29T03:48:14.970Z,91112.42
2018-06-29T03:50:49.665Z,91103.05
2018-06-29T03:53:23.919Z,91103.14
2018-06-29T03:55:58.213Z,91103.02
2018-06-29T03:58:34.389Z,91103.64
2018-06-29T04:01:08.644Z,91103.09
2018-06-29T04:03:43.895Z,91085.63
2018-06-29T04:06:18.210Z,91087.02
2018-06-29T04:08:52.200Z,91093.96
2018-06-29T04:11:26.161Z,91096.52
2018-06-29T04:14:00.158Z,91094.27
2018-06-29T04:16:34.637Z,91102.75
2018-06-29T04:19:08.826Z,91102.79
2018-06-29T04:21:43.174Z,91110.42
2018-06-29T04:24:17.517Z,91111.50
2018-06-29T04:26:51.729Z,91112.85
2018-06-29T04:29:25.880Z,91115.87
2018-06-29T04:32:00.125Z,91122.69
2018-06-29T04:34:34.535Z,91117.38
2018-06-29T04:37:09.466Z,91116.13
2018-06-29T04:39:43.866Z,91110.85
2018-06-29T04:42:17.936Z,91109.46
2018-06-29T04:44:52.274Z,91109.72
2018-06-29T04:47:26.808Z,91097.00
2018-06-29T04:50:01.107Z,91114.13
2018-06-29T04:52:35.984Z,91116.88
2018-06-29T04:55:10.929Z,91108.92
2018-06-29T04:57:45.898Z,91106.14
2018-06-29T05:00:20.032Z,91108.55
2018-06-29T05:02:54.257Z,91097.25
2018-06-29T05:05:28.770Z,91115.42
2018-06-29T05:08:02.788Z,91107.72
2018-06-29T05:10:37.567Z,91110.86
2018-06-29T05:13:11.663Z,91103.12
2018-06-29T05:15:45.737Z,91106.14
2018-06-29T05:18:20.030Z,91099.03
2018-06-29T05:20:54.438Z,91109.06
2018-06-29T05:23:28.425Z,91104.50
2018-06-29T05:26:02.649Z,91100.11
2018-06-29T05:28:37.158Z,91106.61
2018-06-29T05:31:11.288Z,91102.53
2018-06-29T05:33:46.240Z,91112.41
2018-06-29T05:36:20.709Z,91123.54
2018-06-29T05:38:55.035Z,91114.25
2018-06-29T05:41:29.953Z,91111.97
2018-06-29T05:44:04.896Z,91119.46
2018-06-29T05:46:39.229Z,91117.58
2018-06-29T05:49:13.365Z,91124.21
2018-06-29T05:51:47.616Z,91122.58
2018-06-29T05:54:21.687Z,91127.81
2018-06-29T05:56:56.018Z,91121.22
2018-06-29T05:59:30.618Z,91129.37
2018-06-29T06:02:04.845Z,91130.27
2018-06-29T06:04:39.134Z,91120.27
2018-06-29T06:07:13.278Z,91124.44
2018-06-29T06:09:48.334Z,91122.32
2018-06-29T06:12:22.446Z,91126.12
2018-06-29T06:14:56.999Z,91129.78
2018-06-29T06:17:32.876Z,91128.33
2018-06-29T06:20:13.813Z,91124.56
2018-06-29T06:22:48.648Z,91130.09
2018-06-29T06:25:22.669Z,91132.88
2018-06-29T06:27:57.422Z,91143.73
2018-06-29T06:30:31.613Z,91143.18
2018-06-29T06:33:05.984Z,91141.48
2018-06-29T06:35:40.289Z,91152.98
2018-06-29T06:38:15.119Z,91159.98
2018-06-29T06:40:49.579Z,91159.29
2018-06-29T06:43:24.545Z,91147.47
2018-06-29T06:45:59.504Z,91155.25
2018-06-29T06:48:34.062Z,91147.95
2018-06-29T06:51:09.171Z,91147.73
2018-06-29T06:53:43.198Z,91150.05
2018-06-29T06:56:18.164Z,91160.84
2018-06-29T06:58:52.396Z,91147.11
2018-06-29T07:01:26.525Z,91148.10
2018-06-29T07:04:00.488Z,91157.73
2018-06-29T07:06:35.023Z,91146.51
2018-06-29T07:09:11.647Z,91150.81
2018-06-29T07:11:45.880Z,91156.86
2018-06-29T07:14:20.640Z,91151.91
2018-06-29T07:16:54.723Z,91145.41
2018-06-29T07:19:28.802Z,91138.69
2018-06-29T07:22:09.452Z,91145.20
2018-06-29T07:24:43.840Z,91156.25
2018-06-29T07:27:18.708Z,91152.25
2018-06-29T07:29:53.892Z,91147.86
2018-06-29T07:32:28.643Z,91151.70
2018-06-29T07:35:02.784Z,91152.42
2018-06-29T07:37:37.593Z,91147.38
2018-06-29T07:40:11.717Z,91163.27
2018-06-29T07:42:45.885Z,91153.49
2018-06-29T07:45:20.034Z,91157.00
2018-06-29T07:47:54.773Z,91155.61
2018-06-29T07:50:29.570Z,91158.45
2018-06-29T07:53:03.836Z,91149.20
2018-06-29T07:55:38.229Z,91147.69
2018-06-29T07:58:13.804Z,91158.28
2018-06-29T08:00:48.032Z,91164.47
2018-06-29T08:03:22.598Z,91168.13
2018-06-29T08:05:56.777Z,91167.22
2018-06-29T08:08:31.251Z,91172.83
2018-06-29T08:11:04.079Z,91171.14
2018-06-29T08:13:33.346Z,91176.61
2018-06-29T08:16:01.939Z,91174.08
2018-06-29T08:18:30.887Z,91174.03
2018-06-29T08:20:59.429Z,91177.89
2018-06-29T08:23:32.921Z,91181.59
2018-06-29T08:26:13.261Z,91184.23
2018-06-29T08:28:42.749Z,91188.82
2018-06-29T08:31:12.211Z,91182.93
2018-06-29T08:33:42.309Z,91188.97
2018-06-29T08:36:10.896Z,91193.26
2018-06-29T08:38:39.182Z,91199.14
2018-06-29T08:41:08.666Z,91195.31
2018-06-29T08:43:37.757Z,91206.77
2018-06-29T08:46:06.430Z,91205.52
2018-06-29T08:48:35.007Z,91210.77
2018-06-29T08:51:03.774Z,91210.44
2018-06-29T08:53:34.986Z,91204.98
2018-06-29T08:56:03.678Z,91208.20
2018-06-29T08:58:37.522Z,91210.23
2018-06-29T09:01:06.270Z,91213.63
2018-06-29T09:03:34.316Z,91213.09
2018-06-29T09:06:02.537Z,91199.48
2018-06-29T09:08:31.011Z,91206.77
2018-06-29T09:10:59.984Z,91203.65
2018-06-29T09:13:28.144Z,91206.41
2018-06-29T09:15:56.615Z,91201.59
2018-06-29T09:18:24.797Z,91195.30
2018-06-29T09:20:53.669Z,91198.03
2018-06-29T09:23:24.120Z,91199.50
2018-06-29T09:25:53.503Z,91207.97
2018-06-29T09:28:21.587Z,91201.28
2018-06-29T09:30:50.602Z,91204.09
2018-06-29T09:33:19.628Z,91208.38
2018-06-29T09:35:48.635Z,91199.89
2018-06-29T09:38:17.250Z,91209.60
2018-06-29T09:40:46.186Z,91208.91
2018-06-29T09:43:14.838Z,91212.02
2018-06-29T09:45:44.076Z,91201.08
2018-06-29T09:48:12.259Z,91199.13
2018-06-29T09:50:40.886Z,91206.30
2018-06-29T09:53:10.434Z,91211.27
2018-06-29T09:55:38.557Z,91208.61
2018-06-29T09:58:07.055Z,91209.51
2018-06-29T10:03:35.857Z,91203.27
2018-06-29T10:06:04.064Z,91201.27
2018-06-29T10:08:33.291Z,91203.97
2018-06-29T10:11:01.726Z,91194.47
2018-06-29T10:13:29.988Z,91195.87
2018-06-29T10:16:02.791Z,91194.59
2018-06-29T10:18:31.829Z,91193.90
2018-06-29T10:21:00.524Z,91189.00
2018-06-29T10:23:29.677Z,91212.84
2018-06-29T10:25:57.739Z,91195.83
2018-06-29T10:28:26.034Z,91206.47
2018-06-29T10:30:54.255Z,91197.64
2018-06-29T10:33:22.535Z,91216.64
2018-06-29T10:35:51.355Z,91200.76
2018-06-29T10:38:19.714Z,91210.25
2018-06-29T10:40:49.678Z,91207.95
2018-06-29T10:43:17.731Z,91210.67
2018-06-29T10:45:46.646Z,91213.39
2018-06-29T10:48:14.781Z,91203.80
2018-06-29T10:50:44.033Z,91201.06
2018-06-29T10:53:12.080Z,91202.56
2018-06-29T10:55:40.877Z,91208.72
2018-06-29T10:58:09.931Z,91212.01
2018-06-29T11:00:38.229Z,91207.06
2018-06-29T11:03:07.748Z,91209.96
2018-06-29T11:05:36.390Z,91206.03
2018-06-29T11:08:05.616Z,91207.02
2018-06-29T11:10:34.823Z,91210.36
2018-06-29T11:13:04.093Z,91203.59
2018-06-29T11:15:32.241Z,91204.29
2018-06-29T11:18:01.030Z,91217.06
2018-06-29T11:20:29.670Z,91211.16
2018-06-29T11:22:57.964Z,91209.45
2018-06-29T11:25:26.237Z,91205.36
2018-06-29T11:27:55.155Z,91207.05
2018-06-29T11:30:24.134Z,91211.11
2018-06-29T11:32:52.689Z,91198.39
2018-06-29T11:35:21.007Z,91202.48
2018-06-29T11:37:49.224Z,91200.27
2018-06-29T11:40:18.081Z,91206.97
2018-06-29T11:42:46.942Z,91192.40
2018-06-29T11:45:15.079Z,91197.92
2018-06-29T11:47:43.401Z,91199.09
2018-06-29T11:50:12.487Z,91193.10
2018-06-29T11:52:41.262Z,91190.66
2018-06-29T11:55:10.583Z,91188.25
2018-06-29T11:57:38.595Z,91191.33
2018-06-29T12:00:07.063Z,91180.92
2018-06-29T12:02:35.231Z,91185.48
2018-06-29T12:05:03.680Z,91187.22
2018-06-29T12:07:31.688Z,91180.94
2018-06-29T12:09:59.914Z,91177.97
2018-06-29T12:12:28.312Z,91172.55
2018-06-29T12:14:56.824Z,91171.74
2018-06-29T12:17:24.923Z,91167.63
2018-06-29T12:19:52.966Z,91166.95
2018-06-29T12:22:21.375Z,91162.61
2018-06-29T12:24:49.553Z,91162.88
2018-06-29T12:27:17.940Z,91162.55
2018-06-29T12:29:46.337Z,91166.60
2018-06-29T12:32:14.808Z,91166.63
2018-06-29T12:34:43.282Z,91171.08
2018-06-29T12:37:11.301Z,91171.61
2018-06-29T12:39:39.369Z,91167.69
2018-06-29T12:42:07.662Z,91171.15
2018-06-29T12:44:36.129Z,91179.36
2018-06-29T12:47:04.519Z,91178.66
2018-06-29T12:49:32.879Z,91175.80
2018-06-29T12:52:01.087Z,91172.03
2018-06-29T12:54:29.571Z,91180.06
2018-06-29T12:56:57.970Z,91174.66
2018-06-29T12:59:26.024Z,91175.08
2018-06-29T13:01:54.520Z,91173.94
2018-06-29T13:04:25.914Z,91172.13
2018-06-29T13:06:54.136Z,91179.95
2018-06-29T13:09:22.291Z,91176.77
2018-06-29T13:11:50.816Z,91182.95
2018-06-29T13:14:19.230Z,91179.73
2018-06-29T13:16:47.850Z,91179.91
2018-06-29T13:19:15.893Z,91187.44
2018-06-29T13:21:45.302Z,91174.87
2018-06-29T13:24:13.399Z,91178.42
2018-06-29T13:26:41.727Z,91167.13
2018-06-29T13:29:11.912Z,91164.39
2018-06-29T13:31:40.029Z,91167.25
2018-06-29T13:34:08.337Z,91167.66
2018-06-29T13:36:36.367Z,91161.34
2018-06-29T13:39:07.690Z,91168.61
2018-06-29T13:41:39.600Z,91171.66
2018-06-29T13:44:07.804Z,91170.06
2018-06-29T13:46:35.850Z,91165.20
2018-06-29T13:49:04.968Z,91157.95
2018-06-29T13:51:33.503Z,91157.75
2018-06-29T13:54:02.955Z,91162.07
2018-06-29T13:56:30.943Z,91153.23
2018-06-29T13:59:00.084Z,91156.20
2018-06-29T14:01:29.522Z,91152.20
2018-06-29T14:03:58.688Z,91146.88
2018-06-29T14:06:27.082Z,91161.33
2018-06-29T14:08:55.467Z,91151.14
2018-06-29T14:11:24.655Z,91151.41
2018-06-29T14:13:53.608Z,91144.66
2018-06-29T14:16:21.839Z,91145.23
2018-06-29T14:18:50.847Z,91146.84
2018-06-29T14:21:19.441Z,91150.42
2018-06-29T14:23:47.489Z,91150.37
2018-06-29T14:26:18.511Z,91152.75
2018-06-29T14:28:48.140Z,91143.17
2018-06-29T14:31:17.489Z,91154.41
2018-06-29T14:33:46.291Z,91141.57
2018-06-29T14:36:15.370Z,91143.03
2018-06-29T14:38:45.046Z,91146.66
2018-06-29T14:41:13.405Z,91146.47
2018-06-29T14:43:41.850Z,91149.12
2018-06-29T14:46:10.492Z,91143.46
2018-06-29T14:48:39.344Z,91148.36
2018-06-29T14:51:07.751Z,91147.52
2018-06-29T14:53:36.673Z,91156.34
2018-06-29T14:56:05.557Z,91154.94
2018-06-29T14:58:35.092Z,91157.31
2018-06-29T15:01:03.249Z,91171.50
2018-06-29T15:03:32.561Z,91160.28
2018-06-29T15:06:02.167Z,91159.33
2018-06-29T15:08:30.229Z,91165.41
2018-06-29T15:10:58.897Z,91166.75
2018-06-29T15:13:26.979Z,91169.28
2018-06-29T15:15:55.858Z,91183.17
2018-06-29T15:18:23.836Z,91180.47
2018-06-29T15:20:52.184Z,91191.31
2018-06-29T15:23:20.989Z,91177.73
2018-06-29T15:25:50.572Z,91175.87
2018-06-29T15:28:18.651Z,91171.52
2018-06-29T15:30:48.041Z,91178.22
2018-06-29T15:33:16.918Z,91164.58
2018-06-29T15:35:44.947Z,91166.64
2018-06-29T15:38:13.333Z,91165.27
2018-06-29T15:40:44.903Z,91162.90
2018-06-29T15:43:13.696Z,91169.88
2018-06-29T15:45:42.766Z,91171.56
2018-06-29T15:48:11.129Z,91165.79
2018-06-29T15:50:40.168Z,91169.27
2018-06-29T15:53:09.143Z,91169.66
2018-06-29T15:55:37.332Z,91167.87
2018-06-29T15:58:06.777Z,91174.69
2018-06-29T16:00:35.000Z,91167.55
2018-06-29T16:03:03.961Z,91174.53
2018-06-29T16:05:33.943Z,91175.45
2018-06-29T16:08:02.418Z,91177.01
2018-06-29T16:10:31.115Z,91183.92
2018-06-29T16:13:00.067Z,91170.94
2018-06-29T16:15:28.389Z,91186.33
2018-06-29T16:17:56.481Z,91171.23
2018-06-29T16:20:25.110Z,91179.69
2018-06-29T16:22:54.191Z,91171.81
2018-06-29T16:25:23.509Z,91176.09
2018-06-29T16:27:52.338Z,91173.94
2018-06-29T16:30:21.816Z,91179.15
2018-06-29T16:32:49.793Z,91172.55
2018-06-29T16:35:17.847Z,91171.19
2018-06-29T16:37:46.679Z,91171.64
2018-06-29T16:40:15.563Z,91174.40
2018-06-29T16:42:44.505Z,91179.66
2018-06-29T16:45:12.737Z,91171.25
2018-06-29T16:47:43.125Z,91180.27
2018-06-29T16:50:11.245Z,91181.33
2018-06-29T16:52:39.988Z,91171.97
2018-06-29T16:55:11.020Z,91163.12
2018-06-29T16:57:39.060Z,91163.88
2018-06-29T17:00:08.261Z,91158.98
2018-06-29T17:02:37.616Z,91159.58
2018-06-29T17:05:06.073Z,91152.63
2018-06-29T17:07:34.326Z,91155.98
2018-06-29T17:10:02.496Z,91161.35
2018-06-29T17:12:30.500Z,91158.78
2018-06-29T17:14:58.795Z,91154.77
2018-06-29T17:17:26.774Z,91152.36
2018-06-29T17:19:54.962Z,91151.23
2018-06-29T17:22:23.171Z,91159.52
2018-06-29T17:24:52.643Z,91156.83
2018-06-29T17:27:20.990Z,91163.69
2018-06-29T17:29:49.335Z,91152.42
2018-06-29T17:32:18.102Z,91162.58
2018-06-29T17:34:47.396Z,91159.29
2018-06-29T17:37:15.994Z,91167.35
2018-06-29T17:39:50.357Z,91164.77
2018-06-29T17:42:18.572Z,91165.42
2018-06-29T17:53:54.347Z,91172.02
2018-06-29T18:01:59.080Z,91170.05
2018-06-29T18:04:33.367Z,91173.66
2018-06-29T18:07:03.137Z,91170.67
2018-06-29T18:09:34.365Z,91169.45
2018-06-29T18:12:02.871Z,91171.58
2018-06-29T18:14:31.671Z,91168.62
2018-06-29T18:17:01.328Z,91177.05
2018-06-29T18:19:29.907Z,91171.09
2018-06-29T18:21:58.458Z,91175.09
2018-06-29T18:24:27.315Z,91176.91
2018-06-29T18:26:55.860Z,91182.13
2018-06-29T18:29:24.949Z,91178.29
2018-06-29T18:31:53.029Z,91183.50
2018-06-29T18:34:22.557Z,91182.53
2018-06-29T18:36:53.432Z,91178.14
2018-06-29T18:39:24.037Z,91180.86
2018-06-29T18:41:52.521Z,91182.63
2018-06-29T18:44:20.860Z,91185.27
2018-06-29T18:46:48.990Z,91190.44
2018-06-29T18:49:17.509Z,91188.05
2018-06-29T18:51:46.014Z,91189.81
2018-06-29T18:54:14.690Z,91193.48
2018-06-29T18:56:46.400Z,91192.46
2018-06-29T18:59:18.203Z,91189.56
2018-06-29T19:01:46.556Z,91192.13
2018-06-29T19:04:15.207Z,91191.67
2018-06-29T19:06:43.713Z,91198.14
2018-06-29T19:18:33.724Z,91188.19
2018-06-29T19:24:43.562Z,91179.12
2018-06-29T19:27:13.381Z,91188.03
2018-06-29T19:29:41.501Z,91180.90
2018-06-29T19:32:09.705Z,91177.72
2018-06-29T19:34:37.592Z,91182.72
2018-06-29T19:37:05.771Z,91174.37
2018-06-29T19:39:33.645Z,91180.58
2018-06-29T19:42:01.613Z,91174.89
2018-06-29T19:44:30.405Z,91176.91
2018-06-29T19:46:58.285Z,91177.99
2018-06-29T19:49:26.150Z,91180.13
2018-06-29T19:51:54.066Z,91184.94
2018-06-29T19:54:22.022Z,91185.13
2018-06-29T19:56:50.237Z,91186.52
2018-06-29T19:59:18.534Z,91186.33
2018-06-29T20:01:46.504Z,91188.89
2018-06-29T20:04:14.498Z,91179.20
2018-06-29T20:06:42.725Z,91187.30
2018-06-29T20:09:12.179Z,91181.17
2018-06-29T20:11:40.127Z,91186.75
2018-06-29T20:14:09.202Z,91181.29
2018-06-29T20:16:37.048Z,91180.78
2018-06-29T20:19:05.766Z,91184.20
2018-06-29T20:21:34.360Z,91188.06
2018-06-29T20:24:04.399Z,91184.38
2018-06-29T20:26:32.421Z,91191.79
2018-06-29T20:29:00.463Z,91199.00
2018-06-29T20:31:29.532Z,91195.75
2018-06-29T20:33:57.851Z,91205.13
2018-06-29T20:36:26.069Z,91197.61
2018-06-29T20:38:54.109Z,91198.97
2018-06-29T20:41:22.327Z,91204.66
2018-06-29T20:43:50.341Z,91199.08
2018-06-29T20:46:18.090Z,91202.77
2018-06-29T20:48:45.955Z,91201.25
2018-06-29T20:51:13.880Z,91206.80
2018-06-29T20:53:44.046Z,91209.08
2018-06-29T20:56:12.082Z,91205.86
2018-06-29T20:58:45.917Z,91207.06
2018-06-29T21:01:19.917Z,91207.41
2018-06-29T21:04:00.375Z,91200.95
2018-06-29T21:06:34.214Z,91196.52
2018-06-29T21:09:09.572Z,91193.34
2018-06-29T21:11:43.515Z,91196.93
2018-06-29T21:14:17.473Z,91193.39
2018-06-29T21:16:51.382Z,91191.72
2018-06-29T21:19:25.670Z,91198.70
2018-06-29T21:21:59.645Z,91197.98
2018-06-29T21:24:36.854Z,91196.33
2018-06-29T21:27:17.004Z,91195.13
2018-06-29T21:29:50.803Z,91196.09
2018-06-29T21:32:24.604Z,91207.50
2018-06-29T21:34:58.522Z,91199.73
2018-06-29T21:37:32.371Z,91204.87
2018-06-29T21:40:06.353Z,91206.77
2018-06-29T21:42:40.189Z,91201.09
2018-06-29T21:45:14.138Z,91199.70
2018-06-29T21:47:48.083Z,91201.75
2018-06-29T21:50:21.946Z,91198.47
2018-06-29T21:52:55.735Z,91203.89
2018-06-29T21:55:29.572Z,91197.56
2018-06-29T21:58:03.741Z,91196.45
2018-06-29T22:00:39.734Z,91207.63
2018-06-29T22:03:14.035Z,91199.16
2018-06-29T22:05:48.076Z,91192.88
2018-06-29T22:08:22.022Z,91193.33
2018-06-29T22:10:56.011Z,91198.91
2018-06-29T22:13:29.842Z,91197.40
2018-06-29T22:16:03.917Z,91195.27
2018-06-29T22:18:38.129Z,91201.05
2018-06-29T22:21:12.127Z,91203.67
2018-06-29T22:23:45.979Z,91196.66
2018-06-29T22:26:19.922Z,91195.67
2018-06-29T22:28:54.051Z,91198.42
2018-06-29T22:31:27.920Z,91194.40
2018-06-29T22:34:01.997Z,91199.08
2018-06-29T22:36:35.955Z,91198.74
2018-06-29T22:39:11.184Z,91201.53
2018-06-29T22:41:45.161Z,91207.95
2018-06-29T22:44:19.040Z,91202.94
2018-06-29T22:46:53.042Z,91201.45
2018-06-29T22:49:26.959Z,91200.44
2018-06-29T22:52:00.997Z,91203.64
2018-06-29T22:54:34.779Z,91206.27
2018-06-29T22:57:08.656Z,91199.45
2018-06-29T22:59:42.771Z,91196.00
2018-06-29T23:02:16.734Z,91196.52
2018-06-29T23:04:50.628Z,91200.07
2018-06-29T23:07:24.911Z,91197.27
2018-06-29T23:09:58.949Z,91200.45
2018-06-29T23:12:32.752Z,91205.83
2018-06-29T23:15:06.722Z,91200.86
2018-06-29T23:17:40.888Z,91190.02
2018-06-29T23:20:14.771Z,91193.90
2018-06-29T23:22:48.704Z,91194.39
2018-06-29T23:25:23.046Z,91191.84
2018-06-29T23:27:56.921Z,91178.56
2018-06-29T23:30:30.908Z,91183.81
2018-06-29T23:33:04.946Z,91185.20
2018-06-29T23:35:38.929Z,91180.70
2018-06-29T23:38:12.889Z,91188.33
2018-06-29T23:40:46.844Z,91173.64
2018-06-29T23:43:20.817Z,91177.27
2018-06-29T23:45:54.603Z,91185.48
2018-06-29T23:48:28.652Z,91179.30
2018-06-29T23:51:02.578Z,91185.96
2018-06-29T23:53:36.811Z,91184.91
2018-06-29T23:56:10.605Z,91189.41
2018-06-29T23:58:44.726Z,91186.71
